sensor_id;sensor_type;location;lat;lon;timestamp;P1;durP1;ratioP1;P2;durP2;ratioP2
16352;SDS011;8286;51.274;9.542;2023-03-01T00:01:00;13.90;;;8.17;;
16352;SDS011;8286;51.274;9.542;2023-03-01T00:03:27;14.63;;;7.80;;
16352;SDS011;8286;51.274;9.542;2023-03-01T00:05:53;17.17;;;8.30;;
16352;SDS011;8286;51.274;9.542;2023-03-01T00:08:20;17.37;;;7.00;;
16352;SDS011;8286;51.274;9.542;2023-03-01T00:10:46;13.27;;;7.37;;
16352;SDS011;8286;51.274;9.542;2023-03-01T00:13:14;13.67;;;8.00;;
16352;SDS011;8286;51.274;9.542;2023-03-01T00:15:41;13.13;;;6.80;;
16352;SDS011;8286;51.274;9.542;2023-03-01T00:18:08;11.97;;;6.50;;
16352;SDS011;8286;51.274;9.542;2023-03-01T00:20:35;10.17;;;7.13;;
16352;SDS011;8286;51.274;9.542;2023-03-01T00:23:01;12.83;;;6.97;;
16352;SDS011;8286;51.274;9.542;2023-03-01T00:25:28;10.50;;;7.73;;
16352;SDS011;8286;51.274;9.542;2023-03-01T00:27:54;11.43;;;7.03;;
16352;SDS011;8286;51.274;9.542;2023-03-01T00:30:22;11.03;;;7.27;;
16352;SDS011;8286;51.274;9.542;2023-03-01T00:32:49;15.20;;;7.43;;
16352;SDS011;8286;51.274;9.542;2023-03-01T00:35:15;9.43;;;6.77;;
16352;SDS011;8286;51.274;9.542;2023-03-01T00:37:42;10.77;;;6.07;;
16352;SDS011;8286;51.274;9.542;2023-03-01T00:40:09;16.97;;;7.17;;
16352;SDS011;8286;51.274;9.542;2023-03-01T00:42:36;13.30;;;7.30;;
16352;SDS011;8286;51.274;9.542;2023-03-01T00:45:03;11.57;;;7.80;;
16352;SDS011;8286;51.274;9.542;2023-03-01T00:47:34;11.90;;;6.80;;
16352;SDS011;8286;51.274;9.542;2023-03-01T00:50:00;16.30;;;7.60;;
16352;SDS011;8286;51.274;9.542;2023-03-01T00:52:27;12.27;;;6.83;;
16352;SDS011;8286;51.274;9.542;2023-03-01T00:54:53;14.93;;;7.03;;
16352;SDS011;8286;51.274;9.542;2023-03-01T00:57:20;10.47;;;6.00;;
16352;SDS011;8286;51.274;9.542;2023-03-01T00:59:46;12.73;;;7.23;;
16352;SDS011;8286;51.274;9.542;2023-03-01T01:02:13;12.07;;;6.43;;
16352;SDS011;8286;51.274;9.542;2023-03-01T01:04:41;10.73;;;6.80;;
16352;SDS011;8286;51.274;9.542;2023-03-01T01:07:07;11.87;;;6.73;;
16352;SDS011;8286;51.274;9.542;2023-03-01T01:09:34;13.00;;;7.47;;
16352;SDS011;8286;51.274;9.542;2023-03-01T01:12:01;12.00;;;6.87;;
16352;SDS011;8286;51.274;9.542;2023-03-01T01:14:28;10.07;;;6.77;;
16352;SDS011;8286;51.274;9.542;2023-03-01T01:16:55;11.43;;;6.87;;
16352;SDS011;8286;51.274;9.542;2023-03-01T01:19:22;11.87;;;6.47;;
16352;SDS011;8286;51.274;9.542;2023-03-01T01:21:50;9.07;;;6.07;;
16352;SDS011;8286;51.274;9.542;2023-03-01T01:24:17;9.90;;;6.40;;
16352;SDS011;8286;51.274;9.542;2023-03-01T01:26:44;11.30;;;6.07;;
16352;SDS011;8286;51.274;9.542;2023-03-01T01:29:11;9.67;;;5.80;;
16352;SDS011;8286;51.274;9.542;2023-03-01T01:31:39;11.13;;;6.87;;
16352;SDS011;8286;51.274;9.542;2023-03-01T01:34:07;14.10;;;6.33;;
16352;SDS011;8286;51.274;9.542;2023-03-01T01:36:36;13.17;;;6.47;;
16352;SDS011;8286;51.274;9.542;2023-03-01T01:39:04;10.47;;;5.77;;
16352;SDS011;8286;51.274;9.542;2023-03-01T01:41:30;11.00;;;5.90;;
16352;SDS011;8286;51.274;9.542;2023-03-01T01:44:10;9.67;;;5.97;;
16352;SDS011;8286;51.274;9.542;2023-03-01T01:46:39;11.37;;;5.97;;
16352;SDS011;8286;51.274;9.542;2023-03-01T01:49:07;10.60;;;5.87;;
16352;SDS011;8286;51.274;9.542;2023-03-01T01:51:42;9.70;;;6.07;;
16352;SDS011;8286;51.274;9.542;2023-03-01T01:54:13;12.40;;;6.43;;
16352;SDS011;8286;51.274;9.542;2023-03-01T01:56:47;7.57;;;5.47;;
16352;SDS011;8286;51.274;9.542;2023-03-01T01:59:17;11.73;;;6.73;;
16352;SDS011;8286;51.274;9.542;2023-03-01T02:01:44;8.13;;;5.73;;
16352;SDS011;8286;51.274;9.542;2023-03-01T02:04:10;11.03;;;5.90;;
16352;SDS011;8286;51.274;9.542;2023-03-01T02:06:38;9.03;;;5.37;;
16352;SDS011;8286;51.274;9.542;2023-03-01T02:09:07;8.60;;;5.67;;
16352;SDS011;8286;51.274;9.542;2023-03-01T02:11:37;13.23;;;6.03;;
16352;SDS011;8286;51.274;9.542;2023-03-01T02:14:04;8.07;;;5.03;;
16352;SDS011;8286;51.274;9.542;2023-03-01T02:16:31;13.10;;;6.87;;
16352;SDS011;8286;51.274;9.542;2023-03-01T02:18:57;12.83;;;6.30;;
16352;SDS011;8286;51.274;9.542;2023-03-01T02:21:28;13.03;;;6.97;;
16352;SDS011;8286;51.274;9.542;2023-03-01T02:23:59;11.53;;;6.43;;
16352;SDS011;8286;51.274;9.542;2023-03-01T02:26:34;10.57;;;5.73;;
16352;SDS011;8286;51.274;9.542;2023-03-01T02:29:04;10.17;;;6.10;;
16352;SDS011;8286;51.274;9.542;2023-03-01T02:31:31;13.23;;;6.30;;
16352;SDS011;8286;51.274;9.542;2023-03-01T02:34:08;8.87;;;5.07;;
16352;SDS011;8286;51.274;9.542;2023-03-01T02:36:36;15.60;;;6.93;;
16352;SDS011;8286;51.274;9.542;2023-03-01T02:39:05;10.47;;;6.47;;
16352;SDS011;8286;51.274;9.542;2023-03-01T02:41:39;7.73;;;6.10;;
16352;SDS011;8286;51.274;9.542;2023-03-01T02:44:08;10.40;;;6.23;;
16352;SDS011;8286;51.274;9.542;2023-03-01T02:46:41;9.93;;;6.40;;
16352;SDS011;8286;51.274;9.542;2023-03-01T02:49:22;10.33;;;5.57;;
16352;SDS011;8286;51.274;9.542;2023-03-01T02:51:52;10.77;;;6.10;;
16352;SDS011;8286;51.274;9.542;2023-03-01T02:54:28;12.10;;;6.13;;
16352;SDS011;8286;51.274;9.542;2023-03-01T02:56:58;9.90;;;6.20;;
16352;SDS011;8286;51.274;9.542;2023-03-01T02:59:28;10.33;;;6.20;;
16352;SDS011;8286;51.274;9.542;2023-03-01T03:01:57;10.57;;;6.07;;
16352;SDS011;8286;51.274;9.542;2023-03-01T03:04:23;9.40;;;6.30;;
16352;SDS011;8286;51.274;9.542;2023-03-01T03:06:50;14.07;;;7.00;;
16352;SDS011;8286;51.274;9.542;2023-03-01T03:09:17;12.47;;;6.73;;
16352;SDS011;8286;51.274;9.542;2023-03-01T03:11:44;11.50;;;6.40;;
16352;SDS011;8286;51.274;9.542;2023-03-01T03:14:11;11.00;;;6.23;;
16352;SDS011;8286;51.274;9.542;2023-03-01T03:16:41;12.90;;;6.57;;
16352;SDS011;8286;51.274;9.542;2023-03-01T03:19:08;12.77;;;7.07;;
16352;SDS011;8286;51.274;9.542;2023-03-01T03:21:35;12.93;;;6.10;;
16352;SDS011;8286;51.274;9.542;2023-03-01T03:24:01;13.93;;;6.80;;
16352;SDS011;8286;51.274;9.542;2023-03-01T03:26:29;11.37;;;6.20;;
16352;SDS011;8286;51.274;9.542;2023-03-01T03:28:55;11.23;;;6.03;;
16352;SDS011;8286;51.274;9.542;2023-03-01T03:31:22;11.53;;;6.17;;
16352;SDS011;8286;51.274;9.542;2023-03-01T03:33:50;11.33;;;6.63;;
16352;SDS011;8286;51.274;9.542;2023-03-01T03:36:17;10.87;;;6.53;;
16352;SDS011;8286;51.274;9.542;2023-03-01T03:38:45;12.47;;;6.57;;
16352;SDS011;8286;51.274;9.542;2023-03-01T03:41:12;11.20;;;5.90;;
16352;SDS011;8286;51.274;9.542;2023-03-01T03:43:39;12.77;;;6.37;;
16352;SDS011;8286;51.274;9.542;2023-03-01T03:46:08;13.23;;;6.47;;
16352;SDS011;8286;51.274;9.542;2023-03-01T03:48:35;15.47;;;7.60;;
16352;SDS011;8286;51.274;9.542;2023-03-01T03:51:04;10.43;;;6.33;;
16352;SDS011;8286;51.274;9.542;2023-03-01T03:53:31;12.70;;;6.53;;
16352;SDS011;8286;51.274;9.542;2023-03-01T03:55:58;12.07;;;5.87;;
16352;SDS011;8286;51.274;9.542;2023-03-01T03:58:25;10.77;;;6.30;;
16352;SDS011;8286;51.274;9.542;2023-03-01T04:00:52;12.00;;;6.57;;
16352;SDS011;8286;51.274;9.542;2023-03-01T04:03:21;11.17;;;6.43;;
16352;SDS011;8286;51.274;9.542;2023-03-01T04:05:49;15.90;;;6.40;;
16352;SDS011;8286;51.274;9.542;2023-03-01T04:08:18;11.57;;;6.40;;
16352;SDS011;8286;51.274;9.542;2023-03-01T04:10:46;9.97;;;5.80;;
16352;SDS011;8286;51.274;9.542;2023-03-01T04:13:15;11.43;;;6.53;;
16352;SDS011;8286;51.274;9.542;2023-03-01T04:15:44;13.13;;;6.33;;
16352;SDS011;8286;51.274;9.542;2023-03-01T04:18:10;10.60;;;6.70;;
16352;SDS011;8286;51.274;9.542;2023-03-01T04:20:38;10.90;;;6.30;;
16352;SDS011;8286;51.274;9.542;2023-03-01T04:23:06;13.97;;;6.73;;
16352;SDS011;8286;51.274;9.542;2023-03-01T04:25:39;12.57;;;6.97;;
16352;SDS011;8286;51.274;9.542;2023-03-01T04:28:07;13.43;;;6.90;;
16352;SDS011;8286;51.274;9.542;2023-03-01T04:30:34;14.30;;;7.80;;
16352;SDS011;8286;51.274;9.542;2023-03-01T04:33:01;13.70;;;5.90;;
16352;SDS011;8286;51.274;9.542;2023-03-01T04:35:29;15.07;;;7.57;;
16352;SDS011;8286;51.274;9.542;2023-03-01T04:37:56;10.17;;;6.43;;
16352;SDS011;8286;51.274;9.542;2023-03-01T04:40:22;9.80;;;5.83;;
16352;SDS011;8286;51.274;9.542;2023-03-01T04:42:50;16.20;;;7.23;;
16352;SDS011;8286;51.274;9.542;2023-03-01T04:45:17;11.80;;;6.53;;
16352;SDS011;8286;51.274;9.542;2023-03-01T04:47:44;11.50;;;6.77;;
16352;SDS011;8286;51.274;9.542;2023-03-01T04:50:14;14.40;;;6.97;;
16352;SDS011;8286;51.274;9.542;2023-03-01T04:52:45;15.37;;;7.47;;
16352;SDS011;8286;51.274;9.542;2023-03-01T04:55:12;10.07;;;6.80;;
16352;SDS011;8286;51.274;9.542;2023-03-01T04:57:39;15.97;;;7.10;;
16352;SDS011;8286;51.274;9.542;2023-03-01T05:00:09;12.07;;;6.67;;
16352;SDS011;8286;51.274;9.542;2023-03-01T05:02:46;10.53;;;7.73;;
16352;SDS011;8286;51.274;9.542;2023-03-01T05:05:18;13.33;;;7.70;;
16352;SDS011;8286;51.274;9.542;2023-03-01T05:07:45;13.60;;;7.20;;
16352;SDS011;8286;51.274;9.542;2023-03-01T05:10:12;13.27;;;7.07;;
16352;SDS011;8286;51.274;9.542;2023-03-01T05:12:39;12.20;;;6.83;;
16352;SDS011;8286;51.274;9.542;2023-03-01T05:15:07;15.77;;;7.97;;
16352;SDS011;8286;51.274;9.542;2023-03-01T05:17:35;16.70;;;8.43;;
16352;SDS011;8286;51.274;9.542;2023-03-01T05:20:01;19.23;;;7.23;;
16352;SDS011;8286;51.274;9.542;2023-03-01T05:22:32;12.83;;;7.87;;
16352;SDS011;8286;51.274;9.542;2023-03-01T05:24:58;13.50;;;7.50;;
16352;SDS011;8286;51.274;9.542;2023-03-01T05:27:25;16.03;;;8.47;;
16352;SDS011;8286;51.274;9.542;2023-03-01T05:29:51;14.63;;;6.97;;
16352;SDS011;8286;51.274;9.542;2023-03-01T05:32:19;16.13;;;8.37;;
16352;SDS011;8286;51.274;9.542;2023-03-01T05:34:45;17.27;;;7.47;;
16352;SDS011;8286;51.274;9.542;2023-03-01T05:37:12;16.37;;;8.03;;
16352;SDS011;8286;51.274;9.542;2023-03-01T05:39:39;15.93;;;7.23;;
16352;SDS011;8286;51.274;9.542;2023-03-01T05:42:09;15.73;;;7.83;;
16352;SDS011;8286;51.274;9.542;2023-03-01T05:44:36;15.50;;;7.53;;
16352;SDS011;8286;51.274;9.542;2023-03-01T05:47:03;14.87;;;7.03;;
16352;SDS011;8286;51.274;9.542;2023-03-01T05:49:31;13.10;;;7.60;;
16352;SDS011;8286;51.274;9.542;2023-03-01T05:51:57;13.40;;;7.03;;
16352;SDS011;8286;51.274;9.542;2023-03-01T05:54:24;17.90;;;7.27;;
16352;SDS011;8286;51.274;9.542;2023-03-01T05:56:51;15.03;;;7.70;;
16352;SDS011;8286;51.274;9.542;2023-03-01T05:59:17;12.83;;;7.40;;
16352;SDS011;8286;51.274;9.542;2023-03-01T06:01:44;15.17;;;7.93;;
16352;SDS011;8286;51.274;9.542;2023-03-01T06:04:10;14.93;;;7.90;;
16352;SDS011;8286;51.274;9.542;2023-03-01T06:06:38;15.30;;;7.70;;
16352;SDS011;8286;51.274;9.542;2023-03-01T06:09:05;13.67;;;6.63;;
16352;SDS011;8286;51.274;9.542;2023-03-01T06:11:33;10.70;;;6.40;;
16352;SDS011;8286;51.274;9.542;2023-03-01T06:14:00;12.13;;;7.60;;
16352;SDS011;8286;51.274;9.542;2023-03-01T06:16:26;15.90;;;7.77;;
16352;SDS011;8286;51.274;9.542;2023-03-01T06:18:53;18.63;;;9.27;;
16352;SDS011;8286;51.274;9.542;2023-03-01T06:21:19;18.30;;;7.97;;
16352;SDS011;8286;51.274;9.542;2023-03-01T06:23:47;14.30;;;7.53;;
16352;SDS011;8286;51.274;9.542;2023-03-01T06:26:14;16.37;;;7.93;;
16352;SDS011;8286;51.274;9.542;2023-03-01T06:28:40;19.13;;;8.37;;
16352;SDS011;8286;51.274;9.542;2023-03-01T06:31:07;12.67;;;7.70;;
16352;SDS011;8286;51.274;9.542;2023-03-01T06:33:33;19.70;;;8.43;;
16352;SDS011;8286;51.274;9.542;2023-03-01T06:36:01;16.37;;;9.33;;
16352;SDS011;8286;51.274;9.542;2023-03-01T06:38:27;22.43;;;8.30;;
16352;SDS011;8286;51.274;9.542;2023-03-01T06:40:55;13.57;;;8.23;;
16352;SDS011;8286;51.274;9.542;2023-03-01T06:43:22;15.87;;;7.87;;
16352;SDS011;8286;51.274;9.542;2023-03-01T06:45:49;20.20;;;8.03;;
16352;SDS011;8286;51.274;9.542;2023-03-01T06:48:16;16.27;;;8.37;;
16352;SDS011;8286;51.274;9.542;2023-03-01T06:50:42;15.00;;;7.60;;
16352;SDS011;8286;51.274;9.542;2023-03-01T06:53:09;12.27;;;7.30;;
16352;SDS011;8286;51.274;9.542;2023-03-01T06:55:35;14.93;;;7.40;;
16352;SDS011;8286;51.274;9.542;2023-03-01T06:58:03;15.60;;;7.53;;
16352;SDS011;8286;51.274;9.542;2023-03-01T07:00:30;16.17;;;8.50;;
16352;SDS011;8286;51.274;9.542;2023-03-01T07:02:58;17.43;;;7.70;;
16352;SDS011;8286;51.274;9.542;2023-03-01T07:05:25;14.73;;;8.37;;
16352;SDS011;8286;51.274;9.542;2023-03-01T07:07:52;13.90;;;7.43;;
16352;SDS011;8286;51.274;9.542;2023-03-01T07:10:20;13.17;;;7.60;;
16352;SDS011;8286;51.274;9.542;2023-03-01T07:12:46;20.77;;;8.37;;
16352;SDS011;8286;51.274;9.542;2023-03-01T07:15:14;16.27;;;8.57;;
16352;SDS011;8286;51.274;9.542;2023-03-01T07:17:41;17.83;;;9.03;;
16352;SDS011;8286;51.274;9.542;2023-03-01T07:20:09;15.67;;;8.83;;
16352;SDS011;8286;51.274;9.542;2023-03-01T07:22:39;16.23;;;9.27;;
16352;SDS011;8286;51.274;9.542;2023-03-01T07:25:06;23.80;;;9.80;;
16352;SDS011;8286;51.274;9.542;2023-03-01T07:27:33;15.47;;;10.03;;
16352;SDS011;8286;51.274;9.542;2023-03-01T07:29:59;14.47;;;8.80;;
16352;SDS011;8286;51.274;9.542;2023-03-01T07:32:27;16.27;;;9.43;;
16352;SDS011;8286;51.274;9.542;2023-03-01T07:34:54;16.13;;;9.27;;
16352;SDS011;8286;51.274;9.542;2023-03-01T07:37:20;17.70;;;8.63;;
16352;SDS011;8286;51.274;9.542;2023-03-01T07:39:47;17.03;;;9.30;;
16352;SDS011;8286;51.274;9.542;2023-03-01T07:42:13;17.93;;;9.47;;
16352;SDS011;8286;51.274;9.542;2023-03-01T07:44:40;17.27;;;9.67;;
16352;SDS011;8286;51.274;9.542;2023-03-01T07:47:06;19.67;;;9.77;;
16352;SDS011;8286;51.274;9.542;2023-03-01T07:49:34;16.83;;;8.50;;
16352;SDS011;8286;51.274;9.542;2023-03-01T07:52:01;20.33;;;9.70;;
16352;SDS011;8286;51.274;9.542;2023-03-01T07:54:27;20.07;;;8.40;;
16352;SDS011;8286;51.274;9.542;2023-03-01T07:56:54;14.93;;;8.00;;
16352;SDS011;8286;51.274;9.542;2023-03-01T07:59:20;16.80;;;7.97;;
16352;SDS011;8286;51.274;9.542;2023-03-01T08:01:48;13.23;;;8.00;;
16352;SDS011;8286;51.274;9.542;2023-03-01T08:04:15;11.97;;;6.90;;
16352;SDS011;8286;51.274;9.542;2023-03-01T08:06:43;13.73;;;7.13;;
16352;SDS011;8286;51.274;9.542;2023-03-01T08:09:09;12.83;;;6.70;;
16352;SDS011;8286;51.274;9.542;2023-03-01T08:11:36;13.80;;;7.37;;
16352;SDS011;8286;51.274;9.542;2023-03-01T08:14:02;11.57;;;6.30;;
16352;SDS011;8286;51.274;9.542;2023-03-01T08:16:29;9.30;;;5.93;;
16352;SDS011;8286;51.274;9.542;2023-03-01T08:18:56;11.37;;;6.53;;
16352;SDS011;8286;51.274;9.542;2023-03-01T08:21:25;10.60;;;6.53;;
16352;SDS011;8286;51.274;9.542;2023-03-01T08:23:53;11.33;;;6.87;;
16352;SDS011;8286;51.274;9.542;2023-03-01T08:26:20;14.93;;;7.00;;
16352;SDS011;8286;51.274;9.542;2023-03-01T08:28:47;13.00;;;7.57;;
16352;SDS011;8286;51.274;9.542;2023-03-01T08:31:15;17.27;;;7.00;;
16352;SDS011;8286;51.274;9.542;2023-03-01T08:33:43;9.93;;;7.03;;
16352;SDS011;8286;51.274;9.542;2023-03-01T08:36:15;12.03;;;7.20;;
16352;SDS011;8286;51.274;9.542;2023-03-01T08:38:42;12.03;;;7.00;;
16352;SDS011;8286;51.274;9.542;2023-03-01T08:41:10;14.07;;;7.80;;
16352;SDS011;8286;51.274;9.542;2023-03-01T08:43:36;15.40;;;6.70;;
16352;SDS011;8286;51.274;9.542;2023-03-01T08:46:03;13.30;;;7.80;;
16352;SDS011;8286;51.274;9.542;2023-03-01T08:48:30;9.33;;;6.83;;
16352;SDS011;8286;51.274;9.542;2023-03-01T08:50:56;13.80;;;7.40;;
16352;SDS011;8286;51.274;9.542;2023-03-01T08:53:23;18.10;;;7.10;;
16352;SDS011;8286;51.274;9.542;2023-03-01T08:55:49;16.73;;;7.33;;
16352;SDS011;8286;51.274;9.542;2023-03-01T08:58:17;15.43;;;7.07;;
16352;SDS011;8286;51.274;9.542;2023-03-01T09:00:44;11.60;;;5.87;;
16352;SDS011;8286;51.274;9.542;2023-03-01T09:03:10;11.33;;;5.83;;
16352;SDS011;8286;51.274;9.542;2023-03-01T09:05:37;13.77;;;6.20;;
16352;SDS011;8286;51.274;9.542;2023-03-01T09:08:03;7.37;;;5.00;;
16352;SDS011;8286;51.274;9.542;2023-03-01T09:10:30;9.67;;;5.97;;
16352;SDS011;8286;51.274;9.542;2023-03-01T09:12:56;9.03;;;5.43;;
16352;SDS011;8286;51.274;9.542;2023-03-01T09:15:24;7.70;;;5.20;;
16352;SDS011;8286;51.274;9.542;2023-03-01T09:17:51;10.87;;;5.90;;
16352;SDS011;8286;51.274;9.542;2023-03-01T09:20:17;9.20;;;6.03;;
16352;SDS011;8286;51.274;9.542;2023-03-01T09:22:44;12.37;;;5.20;;
16352;SDS011;8286;51.274;9.542;2023-03-01T09:25:10;11.13;;;5.07;;
16352;SDS011;8286;51.274;9.542;2023-03-01T09:27:37;11.87;;;6.03;;
16352;SDS011;8286;51.274;9.542;2023-03-01T09:30:04;14.60;;;6.07;;
16352;SDS011;8286;51.274;9.542;2023-03-01T09:32:32;12.43;;;6.00;;
16352;SDS011;8286;51.274;9.542;2023-03-01T09:34:59;11.80;;;5.87;;
16352;SDS011;8286;51.274;9.542;2023-03-01T09:37:30;11.03;;;5.80;;
16352;SDS011;8286;51.274;9.542;2023-03-01T09:39:57;13.57;;;5.63;;
16352;SDS011;8286;51.274;9.542;2023-03-01T09:42:24;7.67;;;5.23;;
16352;SDS011;8286;51.274;9.542;2023-03-01T09:44:51;13.10;;;5.20;;
16352;SDS011;8286;51.274;9.542;2023-03-01T09:47:19;8.53;;;5.33;;
16352;SDS011;8286;51.274;9.542;2023-03-01T09:49:51;10.90;;;5.47;;
16352;SDS011;8286;51.274;9.542;2023-03-01T09:52:23;8.10;;;5.20;;
16352;SDS011;8286;51.274;9.542;2023-03-01T09:54:55;6.47;;;4.50;;
16352;SDS011;8286;51.274;9.542;2023-03-01T09:57:26;7.13;;;4.47;;
16352;SDS011;8286;51.274;9.542;2023-03-01T09:59:58;7.60;;;5.27;;
16352;SDS011;8286;51.274;9.542;2023-03-01T10:02:32;9.70;;;4.57;;
16352;SDS011;8286;51.274;9.542;2023-03-01T10:05:09;7.80;;;4.90;;
16352;SDS011;8286;51.274;9.542;2023-03-01T10:07:42;8.57;;;5.40;;
16352;SDS011;8286;51.274;9.542;2023-03-01T10:10:16;9.90;;;5.20;;
16352;SDS011;8286;51.274;9.542;2023-03-01T10:12:48;8.53;;;5.27;;
16352;SDS011;8286;51.274;9.542;2023-03-01T10:15:15;11.10;;;5.23;;
16352;SDS011;8286;51.274;9.542;2023-03-01T10:17:46;7.70;;;5.00;;
16352;SDS011;8286;51.274;9.542;2023-03-01T10:20:18;7.20;;;4.43;;
16352;SDS011;8286;51.274;9.542;2023-03-01T10:22:46;8.43;;;5.53;;
16352;SDS011;8286;51.274;9.542;2023-03-01T10:25:15;10.63;;;5.13;;
16352;SDS011;8286;51.274;9.542;2023-03-01T10:27:45;7.33;;;4.80;;
16352;SDS011;8286;51.274;9.542;2023-03-01T10:30:16;8.43;;;5.00;;
16352;SDS011;8286;51.274;9.542;2023-03-01T10:32:46;8.73;;;4.60;;
16352;SDS011;8286;51.274;9.542;2023-03-01T10:35:18;6.93;;;4.97;;
16352;SDS011;8286;51.274;9.542;2023-03-01T10:37:56;7.00;;;5.10;;
16352;SDS011;8286;51.274;9.542;2023-03-01T10:40:23;6.47;;;4.73;;
16352;SDS011;8286;51.274;9.542;2023-03-01T10:42:50;6.80;;;4.80;;
16352;SDS011;8286;51.274;9.542;2023-03-01T10:45:22;11.33;;;5.27;;
16352;SDS011;8286;51.274;9.542;2023-03-01T10:48:03;7.43;;;5.13;;
16352;SDS011;8286;51.274;9.542;2023-03-01T10:50:32;8.47;;;5.47;;
16352;SDS011;8286;51.274;9.542;2023-03-01T10:52:59;7.37;;;4.90;;
16352;SDS011;8286;51.274;9.542;2023-03-01T10:55:28;7.03;;;5.10;;
16352;SDS011;8286;51.274;9.542;2023-03-01T10:58:08;7.63;;;4.90;;
16352;SDS011;8286;51.274;9.542;2023-03-01T11:00:48;7.07;;;5.00;;
16352;SDS011;8286;51.274;9.542;2023-03-01T11:03:17;10.03;;;5.47;;
16352;SDS011;8286;51.274;9.542;2023-03-01T11:05:52;9.73;;;5.27;;
16352;SDS011;8286;51.274;9.542;2023-03-01T11:08:34;9.90;;;5.00;;
16352;SDS011;8286;51.274;9.542;2023-03-01T11:11:03;7.57;;;4.70;;
16352;SDS011;8286;51.274;9.542;2023-03-01T11:13:46;8.13;;;5.10;;
16352;SDS011;8286;51.274;9.542;2023-03-01T11:16:22;5.57;;;4.80;;
16352;SDS011;8286;51.274;9.542;2023-03-01T11:18:56;6.90;;;5.40;;
16352;SDS011;8286;51.274;9.542;2023-03-01T11:21:25;7.17;;;5.30;;
16352;SDS011;8286;51.274;9.542;2023-03-01T11:23:54;8.02;;;4.90;;
16352;SDS011;8286;51.274;9.542;2023-03-01T11:26:22;6.72;;;5.25;;
16352;SDS011;8286;51.274;9.542;2023-03-01T11:28:51;7.03;;;5.63;;
16352;SDS011;8286;51.274;9.542;2023-03-01T11:31:21;7.30;;;5.65;;
16352;SDS011;8286;51.274;9.542;2023-03-01T11:33:51;7.20;;;5.32;;
16352;SDS011;8286;51.274;9.542;2023-03-01T11:36:23;7.97;;;5.40;;
16352;SDS011;8286;51.274;9.542;2023-03-01T11:38:55;8.13;;;5.23;;
16352;SDS011;8286;51.274;9.542;2023-03-01T11:41:23;6.73;;;5.13;;
16352;SDS011;8286;51.274;9.542;2023-03-01T11:43:52;5.73;;;4.43;;
16352;SDS011;8286;51.274;9.542;2023-03-01T11:46:31;6.33;;;4.30;;
16352;SDS011;8286;51.274;9.542;2023-03-01T11:49:06;10.13;;;5.23;;
16352;SDS011;8286;51.274;9.542;2023-03-01T11:51:53;10.43;;;5.43;;
16352;SDS011;8286;51.274;9.542;2023-03-01T11:54:27;8.10;;;4.53;;
16352;SDS011;8286;51.274;9.542;2023-03-01T11:57:00;11.60;;;5.57;;
16352;SDS011;8286;51.274;9.542;2023-03-01T12:02:37;7.57;;;4.90;;
16352;SDS011;8286;51.274;9.542;2023-03-01T12:05:17;9.53;;;5.60;;
16352;SDS011;8286;51.274;9.542;2023-03-01T12:08:22;6.40;;;5.10;;
16352;SDS011;8286;51.274;9.542;2023-03-01T12:10:52;8.90;;;5.23;;
16352;SDS011;8286;51.274;9.542;2023-03-01T12:13:28;9.50;;;5.27;;
16352;SDS011;8286;51.274;9.542;2023-03-01T12:16:13;8.17;;;5.40;;
16352;SDS011;8286;51.274;9.542;2023-03-01T12:18:54;7.87;;;5.30;;
16352;SDS011;8286;51.274;9.542;2023-03-01T12:21:30;7.70;;;4.97;;
16352;SDS011;8286;51.274;9.542;2023-03-01T12:24:08;10.20;;;5.07;;
16352;SDS011;8286;51.274;9.542;2023-03-01T12:26:41;6.93;;;4.97;;
16352;SDS011;8286;51.274;9.542;2023-03-01T12:29:15;8.30;;;4.90;;
16352;SDS011;8286;51.274;9.542;2023-03-01T12:31:57;7.87;;;5.20;;
16352;SDS011;8286;51.274;9.542;2023-03-01T12:34:40;8.77;;;5.30;;
16352;SDS011;8286;51.274;9.542;2023-03-01T12:37:36;11.67;;;5.80;;
16352;SDS011;8286;51.274;9.542;2023-03-01T12:40:18;8.93;;;5.83;;
16352;SDS011;8286;51.274;9.542;2023-03-01T12:42:56;7.37;;;4.33;;
16352;SDS011;8286;51.274;9.542;2023-03-01T12:45:32;7.80;;;5.20;;
16352;SDS011;8286;51.274;9.542;2023-03-01T12:48:09;6.77;;;4.30;;
16352;SDS011;8286;51.274;9.542;2023-03-01T12:50:45;9.40;;;4.53;;
16352;SDS011;8286;51.274;9.542;2023-03-01T12:53:18;8.30;;;5.13;;
16352;SDS011;8286;51.274;9.542;2023-03-01T12:55:50;9.97;;;5.07;;
16352;SDS011;8286;51.274;9.542;2023-03-01T12:58:20;9.33;;;4.30;;
16352;SDS011;8286;51.274;9.542;2023-03-01T13:00:53;8.67;;;4.50;;
16352;SDS011;8286;51.274;9.542;2023-03-01T13:03:29;6.33;;;4.80;;
16352;SDS011;8286;51.274;9.542;2023-03-01T13:06:04;8.20;;;4.77;;
16352;SDS011;8286;51.274;9.542;2023-03-01T13:08:36;6.00;;;4.30;;
16352;SDS011;8286;51.274;9.542;2023-03-01T13:11:11;6.63;;;4.50;;
16352;SDS011;8286;51.274;9.542;2023-03-01T13:13:42;5.80;;;4.53;;
16352;SDS011;8286;51.274;9.542;2023-03-01T13:16:27;8.87;;;4.47;;
16352;SDS011;8286;51.274;9.542;2023-03-01T13:19:06;8.43;;;4.47;;
16352;SDS011;8286;51.274;9.542;2023-03-01T13:21:33;10.90;;;4.60;;
16352;SDS011;8286;51.274;9.542;2023-03-01T13:23:59;6.03;;;4.30;;
16352;SDS011;8286;51.274;9.542;2023-03-01T13:26:27;5.77;;;4.20;;
16352;SDS011;8286;51.274;9.542;2023-03-01T13:28:54;11.30;;;5.17;;
16352;SDS011;8286;51.274;9.542;2023-03-01T13:34:39;7.23;;;4.33;;
16352;SDS011;8286;51.274;9.542;2023-03-01T13:37:10;6.67;;;4.20;;
16352;SDS011;8286;51.274;9.542;2023-03-01T13:39:48;7.97;;;5.00;;
16352;SDS011;8286;51.274;9.542;2023-03-01T13:42:34;8.33;;;4.80;;
16352;SDS011;8286;51.274;9.542;2023-03-01T13:45:03;6.93;;;4.80;;
16352;SDS011;8286;51.274;9.542;2023-03-01T13:47:32;6.30;;;4.27;;
16352;SDS011;8286;51.274;9.542;2023-03-01T13:50:01;7.20;;;4.07;;
16352;SDS011;8286;51.274;9.542;2023-03-01T13:52:37;7.80;;;4.00;;
16352;SDS011;8286;51.274;9.542;2023-03-01T13:55:06;6.97;;;4.10;;
16352;SDS011;8286;51.274;9.542;2023-03-01T13:57:44;8.37;;;3.40;;
16352;SDS011;8286;51.274;9.542;2023-03-01T14:00:25;5.77;;;3.57;;
16352;SDS011;8286;51.274;9.542;2023-03-01T14:03:00;4.73;;;3.40;;
16352;SDS011;8286;51.274;9.542;2023-03-01T14:05:28;5.03;;;3.70;;
16352;SDS011;8286;51.274;9.542;2023-03-01T14:07:55;6.23;;;3.90;;
16352;SDS011;8286;51.274;9.542;2023-03-01T14:10:22;5.10;;;3.60;;
16352;SDS011;8286;51.274;9.542;2023-03-01T14:12:54;5.67;;;3.67;;
16352;SDS011;8286;51.274;9.542;2023-03-01T14:15:25;5.73;;;3.53;;
16352;SDS011;8286;51.274;9.542;2023-03-01T14:17:56;5.73;;;2.90;;
16352;SDS011;8286;51.274;9.542;2023-03-01T14:20:29;4.10;;;3.03;;
16352;SDS011;8286;51.274;9.542;2023-03-01T14:22:58;5.67;;;3.50;;
16352;SDS011;8286;51.274;9.542;2023-03-01T14:25:27;6.80;;;3.47;;
16352;SDS011;8286;51.274;9.542;2023-03-01T14:27:57;5.27;;;3.80;;
16352;SDS011;8286;51.274;9.542;2023-03-01T14:30:26;3.73;;;2.93;;
16352;SDS011;8286;51.274;9.542;2023-03-01T14:32:54;5.37;;;3.10;;
16352;SDS011;8286;51.274;9.542;2023-03-01T14:35:23;5.77;;;3.60;;
16352;SDS011;8286;51.274;9.542;2023-03-01T14:37:51;4.40;;;3.30;;
16352;SDS011;8286;51.274;9.542;2023-03-01T14:40:22;8.77;;;4.00;;
16352;SDS011;8286;51.274;9.542;2023-03-01T14:42:50;5.50;;;3.57;;
16352;SDS011;8286;51.274;9.542;2023-03-01T14:45:18;4.27;;;3.30;;
16352;SDS011;8286;51.274;9.542;2023-03-01T14:47:45;7.43;;;4.03;;
16352;SDS011;8286;51.274;9.542;2023-03-01T14:50:19;7.10;;;3.10;;
16352;SDS011;8286;51.274;9.542;2023-03-01T14:52:49;3.93;;;3.00;;
16352;SDS011;8286;51.274;9.542;2023-03-01T14:55:19;4.57;;;3.40;;
16352;SDS011;8286;51.274;9.542;2023-03-01T14:57:47;5.67;;;3.20;;
16352;SDS011;8286;51.274;9.542;2023-03-01T15:00:16;6.27;;;3.63;;
16352;SDS011;8286;51.274;9.542;2023-03-01T15:02:46;4.33;;;3.03;;
16352;SDS011;8286;51.274;9.542;2023-03-01T15:05:14;7.47;;;3.60;;
16352;SDS011;8286;51.274;9.542;2023-03-01T15:07:42;7.30;;;3.40;;
16352;SDS011;8286;51.274;9.542;2023-03-01T15:10:14;7.30;;;4.30;;
16352;SDS011;8286;51.274;9.542;2023-03-01T15:12:43;5.27;;;3.73;;